sensor_id;sensor_type;location;lat;lon;timestamp;P1;durP1;ratioP1;P2;durP2;ratioP2
54332;SDS011;40230;41.860;21.940;2022-07-29T00:01:07;8.82;;;7.95;;
54332;SDS011;40230;41.860;21.940;2022-07-29T00:03:33;9.23;;;8.43;;
54332;SDS011;40230;41.860;21.940;2022-07-29T00:05:59;8.50;;;7.70;;
54332;SDS011;40230;41.860;21.940;2022-07-29T00:08:25;8.45;;;7.75;;
54332;SDS011;40230;41.860;21.940;2022-07-29T00:10:52;9.80;;;8.88;;
54332;SDS011;40230;41.860;21.940;2022-07-29T00:13:18;10.13;;;9.02;;
54332;SDS011;40230;41.860;21.940;2022-07-29T00:15:44;10.30;;;9.15;;
54332;SDS011;40230;41.860;21.940;2022-07-29T00:18:10;9.77;;;8.85;;
54332;SDS011;40230;41.860;21.940;2022-07-29T00:20:36;9.18;;;8.38;;
54332;SDS011;40230;41.860;21.940;2022-07-29T00:23:02;11.07;;;9.98;;
54332;SDS011;40230;41.860;21.940;2022-07-29T00:25:28;10.15;;;9.15;;
54332;SDS011;40230;41.860;21.940;2022-07-29T00:27:54;8.77;;;7.97;;
54332;SDS011;40230;41.860;21.940;2022-07-29T00:30:20;9.52;;;8.48;;
54332;SDS011;40230;41.860;21.940;2022-07-29T00:32:46;10.40;;;9.40;;
54332;SDS011;40230;41.860;21.940;2022-07-29T00:35:12;8.95;;;8.25;;
54332;SDS011;40230;41.860;21.940;2022-07-29T00:37:57;8.57;;;7.88;;
54332;SDS011;40230;41.860;21.940;2022-07-29T00:40:23;8.82;;;8.07;;
54332;SDS011;40230;41.860;21.940;2022-07-29T00:42:50;10.07;;;9.05;;
54332;SDS011;40230;41.860;21.940;2022-07-29T00:45:16;8.88;;;8.02;;
54332;SDS011;40230;41.860;21.940;2022-07-29T00:47:42;9.45;;;8.43;;
54332;SDS011;40230;41.860;21.940;2022-07-29T00:50:10;11.40;;;9.88;;
54332;SDS011;40230;41.860;21.940;2022-07-29T00:52:37;9.48;;;8.57;;
54332;SDS011;40230;41.860;21.940;2022-07-29T00:55:04;10.00;;;9.05;;
54332;SDS011;40230;41.860;21.940;2022-07-29T00:57:30;8.48;;;7.78;;
54332;SDS011;40230;41.860;21.940;2022-07-29T00:59:57;9.95;;;8.95;;
54332;SDS011;40230;41.860;21.940;2022-07-29T01:02:23;8.80;;;7.90;;
54332;SDS011;40230;41.860;21.940;2022-07-29T01:04:49;9.18;;;8.38;;
54332;SDS011;40230;41.860;21.940;2022-07-29T01:07:15;8.65;;;7.90;;
54332;SDS011;40230;41.860;21.940;2022-07-29T01:09:42;7.78;;;7.18;;
54332;SDS011;40230;41.860;21.940;2022-07-29T01:12:09;9.13;;;8.30;;
54332;SDS011;40230;41.860;21.940;2022-07-29T01:14:38;9.15;;;8.25;;
54332;SDS011;40230;41.860;21.940;2022-07-29T01:30:15;10.27;;;8.77;;
54332;SDS011;40230;41.860;21.940;2022-07-29T01:32:41;10.32;;;9.43;;
54332;SDS011;40230;41.860;21.940;2022-07-29T01:35:10;13.00;;;10.68;;
54332;SDS011;40230;41.860;21.940;2022-07-29T01:40:31;11.98;;;10.07;;
54332;SDS011;40230;41.860;21.940;2022-07-29T01:43:00;14.13;;;11.05;;
54332;SDS011;40230;41.860;21.940;2022-07-29T01:45:32;10.18;;;8.98;;
54332;SDS011;40230;41.860;21.940;2022-07-29T01:48:02;10.98;;;9.70;;
54332;SDS011;40230;41.860;21.940;2022-07-29T01:53:15;10.00;;;9.10;;
54332;SDS011;40230;41.860;21.940;2022-07-29T01:55:42;9.82;;;8.93;;
54332;SDS011;40230;41.860;21.940;2022-07-29T01:58:09;10.75;;;9.75;;
54332;SDS011;40230;41.860;21.940;2022-07-29T02:00:36;11.40;;;10.10;;
54332;SDS011;40230;41.860;21.940;2022-07-29T02:03:05;9.90;;;8.98;;
54332;SDS011;40230;41.860;21.940;2022-07-29T02:05:33;9.32;;;8.52;;
54332;SDS011;40230;41.860;21.940;2022-07-29T02:08:00;9.77;;;8.82;;
54332;SDS011;40230;41.860;21.940;2022-07-29T02:10:28;9.95;;;9.05;;
54332;SDS011;40230;41.860;21.940;2022-07-29T02:12:55;10.02;;;9.13;;
54332;SDS011;40230;41.860;21.940;2022-07-29T02:15:23;11.05;;;10.07;;
54332;SDS011;40230;41.860;21.940;2022-07-29T02:17:54;10.65;;;9.73;;
54332;SDS011;40230;41.860;21.940;2022-07-29T02:20:22;10.93;;;9.93;;
54332;SDS011;40230;41.860;21.940;2022-07-29T02:22:48;10.75;;;9.85;;
54332;SDS011;40230;41.860;21.940;2022-07-29T02:25:15;10.45;;;9.48;;
54332;SDS011;40230;41.860;21.940;2022-07-29T02:27:42;10.90;;;9.93;;
54332;SDS011;40230;41.860;21.940;2022-07-29T02:30:08;11.10;;;10.20;;
54332;SDS011;40230;41.860;21.940;2022-07-29T02:32:36;11.88;;;10.77;;
54332;SDS011;40230;41.860;21.940;2022-07-29T02:35:03;11.13;;;10.13;;
54332;SDS011;40230;41.860;21.940;2022-07-29T02:37:30;11.48;;;10.38;;
54332;SDS011;40230;41.860;21.940;2022-07-29T02:39:56;11.60;;;10.57;;
54332;SDS011;40230;41.860;21.940;2022-07-29T02:42:23;11.05;;;10.13;;
54332;SDS011;40230;41.860;21.940;2022-07-29T02:44:52;11.10;;;10.15;;
54332;SDS011;40230;41.860;21.940;2022-07-29T02:50:07;10.93;;;9.93;;
54332;SDS011;40230;41.860;21.940;2022-07-29T02:52:37;11.18;;;10.18;;
54332;SDS011;40230;41.860;21.940;2022-07-29T02:58:03;14.70;;;11.98;;
54332;SDS011;40230;41.860;21.940;2022-07-29T03:00:31;12.05;;;10.77;;
54332;SDS011;40230;41.860;21.940;2022-07-29T03:03:00;11.82;;;10.70;;
54332;SDS011;40230;41.860;21.940;2022-07-29T03:05:29;10.55;;;9.55;;
54332;SDS011;40230;41.860;21.940;2022-07-29T03:08:06;11.57;;;10.40;;
54332;SDS011;40230;41.860;21.940;2022-07-29T03:10:33;12.20;;;11.13;;
54332;SDS011;40230;41.860;21.940;2022-07-29T03:12:59;15.85;;;11.57;;
54332;SDS011;40230;41.860;21.940;2022-07-29T03:15:26;13.82;;;12.27;;
54332;SDS011;40230;41.860;21.940;2022-07-29T03:17:53;20.90;;;14.20;;
54332;SDS011;40230;41.860;21.940;2022-07-29T03:20:20;15.52;;;12.57;;
54332;SDS011;40230;41.860;21.940;2022-07-29T03:22:46;12.25;;;10.50;;
54332;SDS011;40230;41.860;21.940;2022-07-29T03:25:13;12.45;;;11.15;;
54332;SDS011;40230;41.860;21.940;2022-07-29T03:27:42;11.57;;;10.35;;
54332;SDS011;40230;41.860;21.940;2022-07-29T03:30:09;11.15;;;10.10;;
54332;SDS011;40230;41.860;21.940;2022-07-29T03:32:36;11.45;;;10.35;;
54332;SDS011;40230;41.860;21.940;2022-07-29T03:35:02;12.27;;;10.98;;
54332;SDS011;40230;41.860;21.940;2022-07-29T03:37:29;13.60;;;11.77;;
54332;SDS011;40230;41.860;21.940;2022-07-29T03:39:56;11.55;;;10.52;;
54332;SDS011;40230;41.860;21.940;2022-07-29T03:42:26;11.32;;;10.25;;
54332;SDS011;40230;41.860;21.940;2022-07-29T03:44:54;12.38;;;11.38;;
54332;SDS011;40230;41.860;21.940;2022-07-29T03:47:22;12.45;;;11.35;;
54332;SDS011;40230;41.860;21.940;2022-07-29T03:49:50;13.57;;;12.18;;
54332;SDS011;40230;41.860;21.940;2022-07-29T03:52:17;13.70;;;12.13;;
54332;SDS011;40230;41.860;21.940;2022-07-29T03:54:44;15.43;;;13.65;;
54332;SDS011;40230;41.860;21.940;2022-07-29T03:57:11;14.15;;;11.90;;
54332;SDS011;40230;41.860;21.940;2022-07-29T03:59:37;17.98;;;14.88;;
54332;SDS011;40230;41.860;21.940;2022-07-29T04:02:04;34.35;;;25.73;;
54332;SDS011;40230;41.860;21.940;2022-07-29T04:04:34;16.95;;;12.73;;
54332;SDS011;40230;41.860;21.940;2022-07-29T04:07:01;14.15;;;11.45;;
54332;SDS011;40230;41.860;21.940;2022-07-29T04:09:27;12.50;;;11.13;;
54332;SDS011;40230;41.860;21.940;2022-07-29T04:11:55;13.65;;;11.30;;
54332;SDS011;40230;41.860;21.940;2022-07-29T04:14:21;15.10;;;13.55;;
54332;SDS011;40230;41.860;21.940;2022-07-29T04:16:47;16.30;;;14.52;;
54332;SDS011;40230;41.860;21.940;2022-07-29T04:19:14;13.38;;;12.15;;
54332;SDS011;40230;41.860;21.940;2022-07-29T04:21:40;13.88;;;11.05;;
54332;SDS011;40230;41.860;21.940;2022-07-29T04:24:07;12.60;;;10.63;;
54332;SDS011;40230;41.860;21.940;2022-07-29T04:26:33;11.93;;;10.63;;
54332;SDS011;40230;41.860;21.940;2022-07-29T04:28:59;12.20;;;11.00;;
54332;SDS011;40230;41.860;21.940;2022-07-29T04:31:25;14.48;;;13.07;;
54332;SDS011;40230;41.860;21.940;2022-07-29T04:33:52;11.93;;;10.82;;
54332;SDS011;40230;41.860;21.940;2022-07-29T04:36:18;15.80;;;14.20;;
54332;SDS011;40230;41.860;21.940;2022-07-29T04:38:44;11.32;;;10.20;;
54332;SDS011;40230;41.860;21.940;2022-07-29T04:41:10;11.18;;;10.00;;
54332;SDS011;40230;41.860;21.940;2022-07-29T04:43:36;9.40;;;8.60;;
54332;SDS011;40230;41.860;21.940;2022-07-29T04:46:03;9.93;;;8.98;;
54332;SDS011;40230;41.860;21.940;2022-07-29T04:48:29;10.30;;;9.38;;
54332;SDS011;40230;41.860;21.940;2022-07-29T04:50:55;9.43;;;8.57;;
54332;SDS011;40230;41.860;21.940;2022-07-29T04:53:22;9.35;;;8.60;;
54332;SDS011;40230;41.860;21.940;2022-07-29T04:55:48;10.15;;;9.00;;
54332;SDS011;40230;41.860;21.940;2022-07-29T04:58:14;11.80;;;10.70;;
54332;SDS011;40230;41.860;21.940;2022-07-29T05:00:40;14.68;;;12.77;;
54332;SDS011;40230;41.860;21.940;2022-07-29T05:03:06;11.75;;;10.55;;
54332;SDS011;40230;41.860;21.940;2022-07-29T05:05:32;13.02;;;11.73;;
54332;SDS011;40230;41.860;21.940;2022-07-29T05:07:58;26.02;;;12.50;;
54332;SDS011;40230;41.860;21.940;2022-07-29T05:10:25;15.18;;;13.65;;
54332;SDS011;40230;41.860;21.940;2022-07-29T05:12:51;14.90;;;13.30;;
54332;SDS011;40230;41.860;21.940;2022-07-29T05:15:17;13.13;;;11.73;;
54332;SDS011;40230;41.860;21.940;2022-07-29T05:17:43;13.13;;;11.82;;
54332;SDS011;40230;41.860;21.940;2022-07-29T05:20:10;12.38;;;11.13;;
54332;SDS011;40230;41.860;21.940;2022-07-29T05:22:36;11.15;;;10.15;;
54332;SDS011;40230;41.860;21.940;2022-07-29T05:25:02;10.30;;;9.40;;
54332;SDS011;40230;41.860;21.940;2022-07-29T05:27:28;10.75;;;8.88;;
54332;SDS011;40230;41.860;21.940;2022-07-29T05:29:54;9.40;;;8.40;;
54332;SDS011;40230;41.860;21.940;2022-07-29T05:32:21;16.73;;;15.15;;
54332;SDS011;40230;41.860;21.940;2022-07-29T05:34:47;49.60;;;35.25;;
54332;SDS011;40230;41.860;21.940;2022-07-29T05:37:13;27.85;;;19.67;;
54332;SDS011;40230;41.860;21.940;2022-07-29T05:39:43;19.80;;;16.08;;
54332;SDS011;40230;41.860;21.940;2022-07-29T05:42:09;14.43;;;12.20;;
54332;SDS011;40230;41.860;21.940;2022-07-29T05:44:39;11.27;;;10.18;;
54332;SDS011;40230;41.860;21.940;2022-07-29T05:47:05;9.57;;;8.60;;
54332;SDS011;40230;41.860;21.940;2022-07-29T05:49:31;10.70;;;8.90;;
54332;SDS011;40230;41.860;21.940;2022-07-29T05:51:58;9.98;;;8.98;;
54332;SDS011;40230;41.860;21.940;2022-07-29T05:54:24;10.50;;;9.43;;
54332;SDS011;40230;41.860;21.940;2022-07-29T05:56:50;10.02;;;9.02;;
54332;SDS011;40230;41.860;21.940;2022-07-29T05:59:16;10.65;;;9.60;;
54332;SDS011;40230;41.860;21.940;2022-07-29T06:01:42;16.65;;;9.05;;
54332;SDS011;40230;41.860;21.940;2022-07-29T06:04:09;12.00;;;9.13;;
54332;SDS011;40230;41.860;21.940;2022-07-29T06:06:35;12.88;;;9.27;;
54332;SDS011;40230;41.860;21.940;2022-07-29T06:09:01;10.23;;;9.02;;
54332;SDS011;40230;41.860;21.940;2022-07-29T06:11:28;9.60;;;8.50;;
54332;SDS011;40230;41.860;21.940;2022-07-29T06:13:54;8.43;;;7.72;;
54332;SDS011;40230;41.860;21.940;2022-07-29T06:16:20;9.90;;;8.90;;
54332;SDS011;40230;41.860;21.940;2022-07-29T06:18:46;9.20;;;8.40;;
54332;SDS011;40230;41.860;21.940;2022-07-29T06:21:12;12.18;;;10.90;;
54332;SDS011;40230;41.860;21.940;2022-07-29T06:23:38;15.07;;;13.80;;
54332;SDS011;40230;41.860;21.940;2022-07-29T06:26:04;13.85;;;12.57;;
54332;SDS011;40230;41.860;21.940;2022-07-29T06:28:31;14.77;;;13.38;;
54332;SDS011;40230;41.860;21.940;2022-07-29T06:30:57;15.60;;;14.10;;
54332;SDS011;40230;41.860;21.940;2022-07-29T06:33:23;88.25;;;45.25;;
54332;SDS011;40230;41.860;21.940;2022-07-29T06:35:49;116.85;;;64.22;;
54332;SDS011;40230;41.860;21.940;2022-07-29T06:38:15;114.10;;;61.65;;
54332;SDS011;40230;41.860;21.940;2022-07-29T06:40:42;57.50;;;32.13;;
54332;SDS011;40230;41.860;21.940;2022-07-29T06:43:34;53.33;;;31.65;;
54332;SDS011;40230;41.860;21.940;2022-07-29T06:46:06;28.48;;;18.92;;
54332;SDS011;40230;41.860;21.940;2022-07-29T06:48:34;29.60;;;26.35;;
54332;SDS011;40230;41.860;21.940;2022-07-29T06:51:01;39.08;;;35.33;;
54332;SDS011;40230;41.860;21.940;2022-07-29T06:53:30;16.15;;;12.50;;
54332;SDS011;40230;41.860;21.940;2022-07-29T06:55:57;106.03;;;49.38;;
54332;SDS011;40230;41.860;21.940;2022-07-29T06:58:24;211.85;;;86.57;;
54332;SDS011;40230;41.860;21.940;2022-07-29T07:00:50;74.65;;;37.22;;
54332;SDS011;40230;41.860;21.940;2022-07-29T07:03:17;65.05;;;30.83;;
54332;SDS011;40230;41.860;21.940;2022-07-29T07:05:43;34.83;;;26.38;;
54332;SDS011;40230;41.860;21.940;2022-07-29T07:08:10;16.45;;;14.70;;
54332;SDS011;40230;41.860;21.940;2022-07-29T07:10:36;23.80;;;17.55;;
54332;SDS011;40230;41.860;21.940;2022-07-29T07:13:02;30.88;;;18.30;;
54332;SDS011;40230;41.860;21.940;2022-07-29T07:15:28;216.55;;;94.22;;
54332;SDS011;40230;41.860;21.940;2022-07-29T07:17:54;191.07;;;85.40;;
54332;SDS011;40230;41.860;21.940;2022-07-29T07:20:20;68.05;;;35.05;;
54332;SDS011;40230;41.860;21.940;2022-07-29T07:22:47;220.25;;;96.75;;
54332;SDS011;40230;41.860;21.940;2022-07-29T07:25:13;93.45;;;44.17;;
54332;SDS011;40230;41.860;21.940;2022-07-29T07:27:39;87.35;;;42.67;;
54332;SDS011;40230;41.860;21.940;2022-07-29T07:30:08;56.38;;;33.67;;
54332;SDS011;40230;41.860;21.940;2022-07-29T07:32:35;43.25;;;21.80;;
54332;SDS011;40230;41.860;21.940;2022-07-29T07:35:09;40.28;;;28.33;;
54332;SDS011;40230;41.860;21.940;2022-07-29T07:37:36;31.33;;;20.42;;
54332;SDS011;40230;41.860;21.940;2022-07-29T07:40:02;22.92;;;16.20;;
54332;SDS011;40230;41.860;21.940;2022-07-29T07:42:34;11.82;;;9.93;;
54332;SDS011;40230;41.860;21.940;2022-07-29T07:47:29;11.45;;;10.38;;
54332;SDS011;40230;41.860;21.940;2022-07-29T07:49:55;10.50;;;9.57;;
54332;SDS011;40230;41.860;21.940;2022-07-29T07:52:21;10.70;;;9.60;;
54332;SDS011;40230;41.860;21.940;2022-07-29T07:54:48;9.85;;;8.98;;
54332;SDS011;40230;41.860;21.940;2022-07-29T07:57:14;12.05;;;10.80;;
54332;SDS011;40230;41.860;21.940;2022-07-29T07:59:41;17.42;;;15.82;;
54332;SDS011;40230;41.860;21.940;2022-07-29T08:02:08;7.50;;;6.90;;
54332;SDS011;40230;41.860;21.940;2022-07-29T08:04:35;7.07;;;6.50;;
54332;SDS011;40230;41.860;21.940;2022-07-29T08:07:01;7.25;;;6.70;;
54332;SDS011;40230;41.860;21.940;2022-07-29T08:09:27;7.65;;;6.95;;
54332;SDS011;40230;41.860;21.940;2022-07-29T08:11:54;12.48;;;11.48;;
54332;SDS011;40230;41.860;21.940;2022-07-29T08:14:20;27.88;;;25.58;;
54332;SDS011;40230;41.860;21.940;2022-07-29T08:16:46;13.65;;;12.55;;
54332;SDS011;40230;41.860;21.940;2022-07-29T08:19:12;10.75;;;9.80;;
54332;SDS011;40230;41.860;21.940;2022-07-29T08:21:39;9.25;;;8.40;;
54332;SDS011;40230;41.860;21.940;2022-07-29T08:24:05;9.90;;;9.00;;
54332;SDS011;40230;41.860;21.940;2022-07-29T08:26:50;9.60;;;8.70;;
54332;SDS011;40230;41.860;21.940;2022-07-29T08:29:16;8.48;;;7.68;;
54332;SDS011;40230;41.860;21.940;2022-07-29T08:31:42;8.63;;;7.82;;
54332;SDS011;40230;41.860;21.940;2022-07-29T08:34:08;9.95;;;8.32;;
54332;SDS011;40230;41.860;21.940;2022-07-29T08:36:35;9.57;;;8.70;;
54332;SDS011;40230;41.860;21.940;2022-07-29T08:39:01;9.25;;;8.35;;
54332;SDS011;40230;41.860;21.940;2022-07-29T08:41:27;13.23;;;11.27;;
54332;SDS011;40230;41.860;21.940;2022-07-29T08:43:54;11.13;;;9.90;;
54332;SDS011;40230;41.860;21.940;2022-07-29T08:46:20;12.27;;;10.98;;
54332;SDS011;40230;41.860;21.940;2022-07-29T08:48:47;134.70;;;56.08;;
54332;SDS011;40230;41.860;21.940;2022-07-29T08:51:17;72.65;;;34.22;;
54332;SDS011;40230;41.860;21.940;2022-07-29T08:53:44;151.25;;;66.95;;
54332;SDS011;40230;41.860;21.940;2022-07-29T08:56:13;52.45;;;28.13;;
54332;SDS011;40230;41.860;21.940;2022-07-29T08:58:39;27.58;;;21.25;;
54332;SDS011;40230;41.860;21.940;2022-07-29T09:01:06;30.17;;;19.02;;
54332;SDS011;40230;41.860;21.940;2022-07-29T09:03:34;19.35;;;12.90;;
54332;SDS011;40230;41.860;21.940;2022-07-29T09:06:01;12.50;;;10.65;;
54332;SDS011;40230;41.860;21.940;2022-07-29T09:08:28;12.75;;;11.43;;
54332;SDS011;40230;41.860;21.940;2022-07-29T09:10:54;11.35;;;9.75;;
54332;SDS011;40230;41.860;21.940;2022-07-29T09:13:21;8.82;;;8.05;;
54332;SDS011;40230;41.860;21.940;2022-07-29T09:15:47;10.65;;;8.68;;
54332;SDS011;40230;41.860;21.940;2022-07-29T09:20:58;7.95;;;7.25;;
54332;SDS011;40230;41.860;21.940;2022-07-29T09:26:28;8.60;;;7.80;;
54332;SDS011;40230;41.860;21.940;2022-07-29T09:28:55;7.22;;;6.63;;
54332;SDS011;40230;41.860;21.940;2022-07-29T09:31:55;6.65;;;6.05;;
54332;SDS011;40230;41.860;21.940;2022-07-29T09:34:15;7.72;;;7.03;;
54332;SDS011;40230;41.860;21.940;2022-07-29T09:36:43;7.60;;;7.00;;
54332;SDS011;40230;41.860;21.940;2022-07-29T09:39:09;35.25;;;31.75;;
54332;SDS011;40230;41.860;21.940;2022-07-29T09:44:11;10.07;;;9.18;;
54332;SDS011;40230;41.860;21.940;2022-07-29T09:46:37;8.27;;;7.57;;
54332;SDS011;40230;41.860;21.940;2022-07-29T09:51:33;8.63;;;7.78;;
54332;SDS011;40230;41.860;21.940;2022-07-29T09:54:00;12.52;;;9.85;;
54332;SDS011;40230;41.860;21.940;2022-07-29T09:56:41;36.45;;;21.98;;
54332;SDS011;40230;41.860;21.940;2022-07-29T09:59:08;41.25;;;22.15;;
54332;SDS011;40230;41.860;21.940;2022-07-29T10:01:36;16.42;;;12.77;;
54332;SDS011;40230;41.860;21.940;2022-07-29T10:04:02;10.27;;;9.23;;
54332;SDS011;40230;41.860;21.940;2022-07-29T10:06:28;9.52;;;8.52;;
54332;SDS011;40230;41.860;21.940;2022-07-29T10:08:55;14.60;;;10.02;;
54332;SDS011;40230;41.860;21.940;2022-07-29T10:11:33;10.30;;;9.20;;
54332;SDS011;40230;41.860;21.940;2022-07-29T10:13:59;15.57;;;13.18;;
54332;SDS011;40230;41.860;21.940;2022-07-29T10:16:27;15.52;;;12.23;;
54332;SDS011;40230;41.860;21.940;2022-07-29T10:18:57;11.35;;;10.35;;
54332;SDS011;40230;41.860;21.940;2022-07-29T10:21:25;12.75;;;11.43;;
54332;SDS011;40230;41.860;21.940;2022-07-29T10:23:52;13.43;;;12.10;;
54332;SDS011;40230;41.860;21.940;2022-07-29T10:26:21;11.35;;;10.20;;
54332;SDS011;40230;41.860;21.940;2022-07-29T10:28:48;20.27;;;17.70;;
54332;SDS011;40230;41.860;21.940;2022-07-29T10:42:11;12.43;;;11.23;;
54332;SDS011;40230;41.860;21.940;2022-07-29T10:44:40;16.60;;;15.20;;
54332;SDS011;40230;41.860;21.940;2022-07-29T10:47:07;16.23;;;14.90;;
54332;SDS011;40230;41.860;21.940;2022-07-29T10:49:33;11.48;;;10.57;;
54332;SDS011;40230;41.860;21.940;2022-07-29T11:02:42;11.40;;;10.30;;
54332;SDS011;40230;41.860;21.940;2022-07-29T11:07:38;10.55;;;9.75;;
54332;SDS011;40230;41.860;21.940;2022-07-29T11:15:10;14.07;;;12.65;;
54332;SDS011;40230;41.860;21.940;2022-07-29T11:22:58;14.15;;;13.05;;
54332;SDS011;40230;41.860;21.940;2022-07-29T11:25:25;11.23;;;10.23;;
54332;SDS011;40230;41.860;21.940;2022-07-29T11:27:52;10.57;;;9.73;;
54332;SDS011;40230;41.860;21.940;2022-07-29T11:30:19;9.95;;;9.25;;
54332;SDS011;40230;41.860;21.940;2022-07-29T11:32:46;11.50;;;10.50;;
54332;SDS011;40230;41.860;21.940;2022-07-29T11:35:16;11.68;;;10.57;;
54332;SDS011;40230;41.860;21.940;2022-07-29T11:37:44;11.18;;;10.27;;
54332;SDS011;40230;41.860;21.940;2022-07-29T11:40:12;9.20;;;8.48;;
54332;SDS011;40230;41.860;21.940;2022-07-29T11:42:41;10.35;;;9.65;;
54332;SDS011;40230;41.860;21.940;2022-07-29T11:45:09;13.25;;;12.10;;
54332;SDS011;40230;41.860;21.940;2022-07-29T11:52:58;11.05;;;10.05;;
54332;SDS011;40230;41.860;21.940;2022-07-29T11:55:25;11.73;;;10.70;;
54332;SDS011;40230;41.860;21.940;2022-07-29T12:03:06;10.25;;;9.32;;
54332;SDS011;40230;41.860;21.940;2022-07-29T12:05:42;10.20;;;9.25;;
54332;SDS011;40230;41.860;21.940;2022-07-29T12:10:36;10.60;;;9.60;;
54332;SDS011;40230;41.860;21.940;2022-07-29T12:13:02;20.45;;;13.82;;
54332;SDS011;40230;41.860;21.940;2022-07-29T12:15:29;12.20;;;9.55;;
54332;SDS011;40230;41.860;21.940;2022-07-29T12:17:55;10.20;;;9.20;;
54332;SDS011;40230;41.860;21.940;2022-07-29T12:20:22;11.32;;;10.30;;
54332;SDS011;40230;41.860;21.940;2022-07-29T12:22:48;10.55;;;9.65;;
54332;SDS011;40230;41.860;21.940;2022-07-29T12:25:15;9.35;;;8.55;;
54332;SDS011;40230;41.860;21.940;2022-07-29T12:27:42;8.75;;;8.05;;
54332;SDS011;40230;41.860;21.940;2022-07-29T12:30:09;9.95;;;9.13;;
54332;SDS011;40230;41.860;21.940;2022-07-29T12:32:37;10.02;;;9.32;;
54332;SDS011;40230;41.860;21.940;2022-07-29T12:35:05;9.80;;;9.02;;
54332;SDS011;40230;41.860;21.940;2022-07-29T12:37:33;9.35;;;8.55;;
54332;SDS011;40230;41.860;21.940;2022-07-29T12:40:00;9.80;;;9.02;;
54332;SDS011;40230;41.860;21.940;2022-07-29T12:42:26;9.80;;;9.10;;
54332;SDS011;40230;41.860;21.940;2022-07-29T12:44:52;21.80;;;14.18;;
54332;SDS011;40230;41.860;21.940;2022-07-29T12:47:19;33.15;;;20.40;;
54332;SDS011;40230;41.860;21.940;2022-07-29T12:49:45;21.98;;;15.80;;
54332;SDS011;40230;41.860;21.940;2022-07-29T12:52:28;20.52;;;13.27;;
54332;SDS011;40230;41.860;21.940;2022-07-29T12:54:54;10.15;;;9.25;;
54332;SDS011;40230;41.860;21.940;2022-07-29T12:57:21;25.45;;;23.13;;
54332;SDS011;40230;41.860;21.940;2022-07-29T13:00:00;15.00;;;13.80;;
54332;SDS011;40230;41.860;21.940;2022-07-29T13:02:26;13.00;;;11.80;;
54332;SDS011;40230;41.860;21.940;2022-07-29T13:04:55;10.43;;;9.57;;
54332;SDS011;40230;41.860;21.940;2022-07-29T13:07:26;8.60;;;7.90;;
54332;SDS011;40230;41.860;21.940;2022-07-29T13:09:53;10.07;;;9.18;;
54332;SDS011;40230;41.860;21.940;2022-07-29T13:12:20;10.57;;;9.68;;
54332;SDS011;40230;41.860;21.940;2022-07-29T13:14:49;8.77;;;8.07;;
54332;SDS011;40230;41.860;21.940;2022-07-29T13:17:19;8.80;;;8.00;;
54332;SDS011;40230;41.860;21.940;2022-07-29T13:19:50;8.32;;;7.72;;
54332;SDS011;40230;41.860;21.940;2022-07-29T13:22:17;8.70;;;7.72;;
54332;SDS011;40230;41.860;21.940;2022-07-29T13:24:48;7.18;;;6.68;;
54332;SDS011;40230;41.860;21.940;2022-07-29T13:27:15;6.90;;;6.30;;
54332;SDS011;40230;41.860;21.940;2022-07-29T13:29:41;7.82;;;7.25;;
54332;SDS011;40230;41.860;21.940;2022-07-29T13:32:07;7.05;;;6.50;;
54332;SDS011;40230;41.860;21.940;2022-07-29T13:34:33;7.85;;;7.20;;
54332;SDS011;40230;41.860;21.940;2022-07-29T13:36:59;8.60;;;7.80;;
54332;SDS011;40230;41.860;21.940;2022-07-29T13:39:26;7.20;;;6.70;;
54332;SDS011;40230;41.860;21.940;2022-07-29T13:41:52;7.60;;;7.00;;
54332;SDS011;40230;41.860;21.940;2022-07-29T13:44:18;7.40;;;6.85;;
54332;SDS011;40230;41.860;21.940;2022-07-29T13:46:44;7.82;;;7.22;;
54332;SDS011;40230;41.860;21.940;2022-07-29T13:51:53;7.10;;;6.50;;
54332;SDS011;40230;41.860;21.940;2022-07-29T13:54:19;7.05;;;6.45;;
54332;SDS011;40230;41.860;21.940;2022-07-29T13:56:51;6.82;;;6.20;;
54332;SDS011;40230;41.860;21.940;2022-07-29T13:59:18;6.93;;;6.20;;
54332;SDS011;40230;41.860;21.940;2022-07-29T14:01:45;7.40;;;6.78;;
54332;SDS011;40230;41.860;21.940;2022-07-29T14:04:11;7.30;;;6.70;;
54332;SDS011;40230;41.860;21.940;2022-07-29T14:06:37;7.07;;;6.53;;
54332;SDS011;40230;41.860;21.940;2022-07-29T14:09:04;6.70;;;6.10;;
54332;SDS011;40230;41.860;21.940;2022-07-29T14:11:49;6.32;;;5.82;;
54332;SDS011;40230;41.860;21.940;2022-07-29T14:14:16;7.28;;;6.57;;
54332;SDS011;40230;41.860;21.940;2022-07-29T14:16:42;6.32;;;5.72;;
54332;SDS011;40230;41.860;21.940;2022-07-29T14:19:09;6.85;;;6.35;;
54332;SDS011;40230;41.860;21.940;2022-07-29T14:21:35;6.90;;;6.40;;
54332;SDS011;40230;41.860;21.940;2022-07-29T14:24:02;10.73;;;6.93;;
54332;SDS011;40230;41.860;21.940;2022-07-29T14:26:28;7.97;;;7.28;;
54332;SDS011;40230;41.860;21.940;2022-07-29T14:28:54;7.40;;;6.70;;
54332;SDS011;40230;41.860;21.940;2022-07-29T14:31:20;8.82;;;7.03;;
54332;SDS011;40230;41.860;21.940;2022-07-29T14:33:46;6.80;;;6.20;;
54332;SDS011;40230;41.860;21.940;2022-07-29T14:36:15;6.90;;;6.35;;
54332;SDS011;40230;41.860;21.940;2022-07-29T14:38:49;5.78;;;5.22;;
54332;SDS011;40230;41.860;21.940;2022-07-29T14:41:15;6.78;;;6.28;;
54332;SDS011;40230;41.860;21.940;2022-07-29T14:43:41;6.47;;;5.97;;
54332;SDS011;40230;41.860;21.940;2022-07-29T14:46:07;6.75;;;6.25;;
54332;SDS011;40230;41.860;21.940;2022-07-29T14:48:34;6.95;;;5.32;;
54332;SDS011;40230;41.860;21.940;2022-07-29T14:51:00;9.32;;;8.38;;
54332;SDS011;40230;41.860;21.940;2022-07-29T14:53:26;7.05;;;6.35;;
54332;SDS011;40230;41.860;21.940;2022-07-29T14:55:52;7.15;;;6.55;;
54332;SDS011;40230;41.860;21.940;2022-07-29T14:58:18;6.25;;;5.75;;
54332;SDS011;40230;41.860;21.940;2022-07-29T15:00:46;12.18;;;11.27;;
54332;SDS011;40230;41.860;21.940;2022-07-29T15:03:12;6.78;;;6.13;;
54332;SDS011;40230;41.860;21.940;2022-07-29T15:05:38;6.55;;;6.00;;
54332;SDS011;40230;41.860;21.940;2022-07-29T15:08:04;6.28;;;5.75;;
54332;SDS011;40230;41.860;21.940;2022-07-29T15:10:36;6.55;;;6.03;;
54332;SDS011;40230;41.860;21.940;2022-07-29T15:13:04;5.80;;;5.40;;
54332;SDS011;40230;41.860;21.940;2022-07-29T15:15:33;6.18;;;5.68;;
54332;SDS011;40230;41.860;21.940;2022-07-29T15:17:59;6.25;;;5.75;;
54332;SDS011;40230;41.860;21.940;2022-07-29T15:20:25;6.13;;;5.72;;
54332;SDS011;40230;41.860;21.940;2022-07-29T15:22:52;6.05;;;5.65;;
54332;SDS011;40230;41.860;21.940;2022-07-29T15:25:20;6.43;;;5.88;;
54332;SDS011;40230;41.860;21.940;2022-07-29T15:27:46;5.43;;;5.03;;
54332;SDS011;40230;41.860;21.940;2022-07-29T15:30:14;5.93;;;5.43;;
54332;SDS011;40230;41.860;21.940;2022-07-29T15:32:44;7.38;;;6.00;;
54332;SDS011;40230;41.860;21.940;2022-07-29T15:35:10;6.15;;;5.65;;
54332;SDS011;40230;41.860;21.940;2022-07-29T15:37:37;5.70;;;5.20;;
54332;SDS011;40230;41.860;21.940;2022-07-29T15:40:06;6.07;;;5.57;;
54332;SDS011;40230;41.860;21.940;2022-07-29T15:42:34;6.07;;;5.53;;
54332;SDS011;40230;41.860;21.940;2022-07-29T15:45:02;9.50;;;8.60;;
54332;SDS011;40230;41.860;21.940;2022-07-29T15:47:28;6.68;;;6.07;;
54332;SDS011;40230;41.860;21.940;2022-07-29T15:49:54;6.43;;;5.85;;